sensor_id;sensor_type;location;lat;lon;timestamp;temperature;humidity
25918;DHT22;13899;51.174;4.456;2023-02-26T00:00:09;4.50;99.90
25918;DHT22;13899;51.174;4.456;2023-02-26T00:02:41;4.90;99.90
25918;DHT22;13899;51.174;4.456;2023-02-26T00:05:07;4.90;99.90
25918;DHT22;13899;51.174;4.456;2023-02-26T00:07:34;4.70;99.90
25918;DHT22;13899;51.174;4.456;2023-02-26T00:09:59;4.70;99.90
25918;DHT22;13899;51.174;4.456;2023-02-26T00:12:29;4.80;99.90
25918;DHT22;13899;51.174;4.456;2023-02-26T00:14:55;5.10;99.90
25918;DHT22;13899;51.174;4.456;2023-02-26T00:19:52;5.60;99.90
25918;DHT22;13899;51.174;4.456;2023-02-26T00:22:19;5.90;99.90
25918;DHT22;13899;51.174;4.456;2023-02-26T00:24:45;6.20;99.90
25918;DHT22;13899;51.174;4.456;2023-02-26T00:27:11;6.60;99.90
25918;DHT22;13899;51.174;4.456;2023-02-26T00:29:37;6.40;99.90
25918;DHT22;13899;51.174;4.456;2023-02-26T00:32:02;6.10;99.90
25918;DHT22;13899;51.174;4.456;2023-02-26T00:34:28;6.50;99.90
25918;DHT22;13899;51.174;4.456;2023-02-26T00:40:34;5.40;99.90
25918;DHT22;13899;51.174;4.456;2023-02-26T00:43:04;5.40;99.90
25918;DHT22;13899;51.174;4.456;2023-02-26T00:45:31;5.70;99.90
25918;DHT22;13899;51.174;4.456;2023-02-26T00:51:07;5.50;99.90
25918;DHT22;13899;51.174;4.456;2023-02-26T00:56:08;5.60;99.90
25918;DHT22;13899;51.174;4.456;2023-02-26T00:58:33;5.10;99.90
25918;DHT22;13899;51.174;4.456;2023-02-26T01:00:59;5.50;99.90
25918;DHT22;13899;51.174;4.456;2023-02-26T01:03:25;5.70;99.90
25918;DHT22;13899;51.174;4.456;2023-02-26T01:05:51;5.50;99.90
25918;DHT22;13899;51.174;4.456;2023-02-26T01:09:24;5.50;99.90
25918;DHT22;13899;51.174;4.456;2023-02-26T01:11:32;5.90;99.90
25918;DHT22;13899;51.174;4.456;2023-02-26T01:13:58;5.60;99.90
25918;DHT22;13899;51.174;4.456;2023-02-26T01:16:27;5.60;99.90
25918;DHT22;13899;51.174;4.456;2023-02-26T01:19:02;5.50;99.90
25918;DHT22;13899;51.174;4.456;2023-02-26T01:21:36;5.70;99.90
25918;DHT22;13899;51.174;4.456;2023-02-26T01:24:07;5.80;99.90
25918;DHT22;13899;51.174;4.456;2023-02-26T01:26:34;5.40;99.90
25918;DHT22;13899;51.174;4.456;2023-02-26T01:28:59;5.10;99.90
25918;DHT22;13899;51.174;4.456;2023-02-26T01:31:33;4.70;99.90
25918;DHT22;13899;51.174;4.456;2023-02-26T01:34:17;5.30;99.90
25918;DHT22;13899;51.174;4.456;2023-02-26T01:36:53;5.50;99.90
25918;DHT22;13899;51.174;4.456;2023-02-26T01:40:00;5.10;99.90
25918;DHT22;13899;51.174;4.456;2023-02-26T01:42:31;5.10;99.90
25918;DHT22;13899;51.174;4.456;2023-02-26T01:45:10;4.70;99.90
25918;DHT22;13899;51.174;4.456;2023-02-26T01:50:24;4.60;99.90
25918;DHT22;13899;51.174;4.456;2023-02-26T01:53:17;4.80;99.90
25918;DHT22;13899;51.174;4.456;2023-02-26T01:55:46;4.60;99.90
25918;DHT22;13899;51.174;4.456;2023-02-26T01:58:13;4.70;99.90
25918;DHT22;13899;51.174;4.456;2023-02-26T02:00:39;4.30;99.90
25918;DHT22;13899;51.174;4.456;2023-02-26T02:03:05;4.40;99.90
25918;DHT22;13899;51.174;4.456;2023-02-26T02:05:36;4.10;99.90
25918;DHT22;13899;51.174;4.456;2023-02-26T02:08:03;3.70;99.90
25918;DHT22;13899;51.174;4.456;2023-02-26T02:10:29;3.80;99.90
25918;DHT22;13899;51.174;4.456;2023-02-26T02:13:05;4.10;99.90
25918;DHT22;13899;51.174;4.456;2023-02-26T02:15:42;3.70;99.90
25918;DHT22;13899;51.174;4.456;2023-02-26T02:18:36;3.50;99.90
25918;DHT22;13899;51.174;4.456;2023-02-26T02:23:47;3.60;99.90
25918;DHT22;13899;51.174;4.456;2023-02-26T02:31:58;3.80;99.90
25918;DHT22;13899;51.174;4.456;2023-02-26T02:34:38;3.90;99.90
25918;DHT22;13899;51.174;4.456;2023-02-26T02:37:26;3.90;99.90
25918;DHT22;13899;51.174;4.456;2023-02-26T02:40:27;3.90;99.90
25918;DHT22;13899;51.174;4.456;2023-02-26T02:43:03;3.80;99.90
25918;DHT22;13899;51.174;4.456;2023-02-26T02:48:15;4.00;99.90
25918;DHT22;13899;51.174;4.456;2023-02-26T02:50:49;3.80;99.90
25918;DHT22;13899;51.174;4.456;2023-02-26T02:54:19;3.80;99.90
25918;DHT22;13899;51.174;4.456;2023-02-26T02:56:33;3.60;99.90
25918;DHT22;13899;51.174;4.456;2023-02-26T02:59:14;4.00;99.90
25918;DHT22;13899;51.174;4.456;2023-02-26T03:01:41;3.70;99.90
25918;DHT22;13899;51.174;4.456;2023-02-26T03:04:10;3.40;99.90
25918;DHT22;13899;51.174;4.456;2023-02-26T03:06:37;3.40;99.90
25918;DHT22;13899;51.174;4.456;2023-02-26T03:09:05;3.50;99.90
25918;DHT22;13899;51.174;4.456;2023-02-26T03:11:31;3.90;99.90
25918;DHT22;13899;51.174;4.456;2023-02-26T03:13:58;3.70;99.90
25918;DHT22;13899;51.174;4.456;2023-02-26T03:16:43;3.80;99.90
25918;DHT22;13899;51.174;4.456;2023-02-26T03:24:49;3.80;99.90
25918;DHT22;13899;51.174;4.456;2023-02-26T03:30:19;3.30;99.90
25918;DHT22;13899;51.174;4.456;2023-02-26T03:33:11;3.40;99.90
25918;DHT22;13899;51.174;4.456;2023-02-26T03:35:46;3.50;99.90
25918;DHT22;13899;51.174;4.456;2023-02-26T03:38:23;3.70;99.90
25918;DHT22;13899;51.174;4.456;2023-02-26T03:40:56;3.80;99.90
25918;DHT22;13899;51.174;4.456;2023-02-26T03:43:32;3.80;99.90
25918;DHT22;13899;51.174;4.456;2023-02-26T03:46:03;3.80;99.90
25918;DHT22;13899;51.174;4.456;2023-02-26T03:48:30;3.50;99.90
25918;DHT22;13899;51.174;4.456;2023-02-26T03:51:00;3.40;99.90
25918;DHT22;13899;51.174;4.456;2023-02-26T03:53:38;3.70;99.90
25918;DHT22;13899;51.174;4.456;2023-02-26T03:56:28;4.10;99.90
25918;DHT22;13899;51.174;4.456;2023-02-26T03:58:55;4.10;99.90
25918;DHT22;13899;51.174;4.456;2023-02-26T04:01:25;4.20;99.90
25918;DHT22;13899;51.174;4.456;2023-02-26T04:06:23;4.20;99.90
25918;DHT22;13899;51.174;4.456;2023-02-26T04:08:49;4.30;99.90
25918;DHT22;13899;51.174;4.456;2023-02-26T04:11:18;4.10;99.90
25918;DHT22;13899;51.174;4.456;2023-02-26T04:13:45;4.00;99.90
25918;DHT22;13899;51.174;4.456;2023-02-26T04:16:11;4.00;99.90
25918;DHT22;13899;51.174;4.456;2023-02-26T04:18:37;3.40;99.90
25918;DHT22;13899;51.174;4.456;2023-02-26T04:21:02;3.30;99.90
25918;DHT22;13899;51.174;4.456;2023-02-26T04:23:29;3.30;99.90
25918;DHT22;13899;51.174;4.456;2023-02-26T04:25:55;3.50;99.90
25918;DHT22;13899;51.174;4.456;2023-02-26T04:28:20;3.50;99.90
25918;DHT22;13899;51.174;4.456;2023-02-26T04:30:46;3.30;99.90
25918;DHT22;13899;51.174;4.456;2023-02-26T04:33:12;3.40;99.90
25918;DHT22;13899;51.174;4.456;2023-02-26T04:35:39;3.20;99.90
25918;DHT22;13899;51.174;4.456;2023-02-26T04:38:04;3.20;99.90
25918;DHT22;13899;51.174;4.456;2023-02-26T04:40:30;3.20;99.90
25918;DHT22;13899;51.174;4.456;2023-02-26T04:42:56;3.50;99.90
25918;DHT22;13899;51.174;4.456;2023-02-26T04:45:22;3.20;99.90
25918;DHT22;13899;51.174;4.456;2023-02-26T04:47:47;2.90;99.90
25918;DHT22;13899;51.174;4.456;2023-02-26T04:50:13;2.80;99.90
25918;DHT22;13899;51.174;4.456;2023-02-26T04:52:38;2.60;99.90
25918;DHT22;13899;51.174;4.456;2023-02-26T04:55:05;2.80;99.90
25918;DHT22;13899;51.174;4.456;2023-02-26T04:57:32;2.70;99.90
25918;DHT22;13899;51.174;4.456;2023-02-26T04:59:58;2.60;99.90
25918;DHT22;13899;51.174;4.456;2023-02-26T05:02:24;2.60;99.90
25918;DHT22;13899;51.174;4.456;2023-02-26T05:04:50;3.00;99.90
25918;DHT22;13899;51.174;4.456;2023-02-26T05:07:15;3.40;99.90
25918;DHT22;13899;51.174;4.456;2023-02-26T05:09:41;3.70;99.90
25918;DHT22;13899;51.174;4.456;2023-02-26T05:12:07;3.70;99.90
25918;DHT22;13899;51.174;4.456;2023-02-26T05:14:32;3.70;99.90
25918;DHT22;13899;51.174;4.456;2023-02-26T05:16:58;3.70;99.90
25918;DHT22;13899;51.174;4.456;2023-02-26T05:19:24;3.70;99.90
25918;DHT22;13899;51.174;4.456;2023-02-26T05:21:49;3.50;99.90
25918;DHT22;13899;51.174;4.456;2023-02-26T05:24:15;3.30;99.90
25918;DHT22;13899;51.174;4.456;2023-02-26T05:26:41;3.20;99.90
25918;DHT22;13899;51.174;4.456;2023-02-26T05:29:07;3.60;99.90
25918;DHT22;13899;51.174;4.456;2023-02-26T05:31:32;3.40;99.90
25918;DHT22;13899;51.174;4.456;2023-02-26T05:33:58;3.10;99.90
25918;DHT22;13899;51.174;4.456;2023-02-26T05:36:24;2.80;99.90
25918;DHT22;13899;51.174;4.456;2023-02-26T05:38:49;2.80;99.90
25918;DHT22;13899;51.174;4.456;2023-02-26T05:41:15;3.00;99.90
25918;DHT22;13899;51.174;4.456;2023-02-26T05:43:40;3.10;99.90
25918;DHT22;13899;51.174;4.456;2023-02-26T05:46:06;3.40;99.90
25918;DHT22;13899;51.174;4.456;2023-02-26T05:48:32;3.50;99.90
25918;DHT22;13899;51.174;4.456;2023-02-26T05:50:58;3.30;99.90
25918;DHT22;13899;51.174;4.456;2023-02-26T05:53:24;3.70;99.90
25918;DHT22;13899;51.174;4.456;2023-02-26T05:55:52;3.50;99.90
25918;DHT22;13899;51.174;4.456;2023-02-26T05:58:17;3.40;99.90
25918;DHT22;13899;51.174;4.456;2023-02-26T06:00:43;3.10;99.90
25918;DHT22;13899;51.174;4.456;2023-02-26T06:03:08;3.00;99.90
25918;DHT22;13899;51.174;4.456;2023-02-26T06:05:34;3.20;99.90
25918;DHT22;13899;51.174;4.456;2023-02-26T06:08:00;3.30;99.90
25918;DHT22;13899;51.174;4.456;2023-02-26T06:10:26;3.40;99.90
25918;DHT22;13899;51.174;4.456;2023-02-26T06:12:52;3.30;99.90
25918;DHT22;13899;51.174;4.456;2023-02-26T06:15:17;3.30;99.90
25918;DHT22;13899;51.174;4.456;2023-02-26T06:17:44;2.80;99.90
25918;DHT22;13899;51.174;4.456;2023-02-26T06:20:10;2.90;99.90
25918;DHT22;13899;51.174;4.456;2023-02-26T06:22:36;2.80;99.90
25918;DHT22;13899;51.174;4.456;2023-02-26T06:25:02;2.50;99.90
25918;DHT22;13899;51.174;4.456;2023-02-26T06:27:27;2.60;99.90
25918;DHT22;13899;51.174;4.456;2023-02-26T06:29:53;2.80;99.90
25918;DHT22;13899;51.174;4.456;2023-02-26T06:32:18;2.90;99.90
25918;DHT22;13899;51.174;4.456;2023-02-26T06:34:44;2.90;99.90
25918;DHT22;13899;51.174;4.456;2023-02-26T06:37:10;3.00;99.90
25918;DHT22;13899;51.174;4.456;2023-02-26T06:39:35;3.10;99.90
25918;DHT22;13899;51.174;4.456;2023-02-26T06:42:01;3.30;99.90
25918;DHT22;13899;51.174;4.456;2023-02-26T06:44:26;3.40;99.90
25918;DHT22;13899;51.174;4.456;2023-02-26T06:46:52;3.30;99.90
25918;DHT22;13899;51.174;4.456;2023-02-26T06:49:18;3.20;99.90
25918;DHT22;13899;51.174;4.456;2023-02-26T06:51:43;3.40;99.90
25918;DHT22;13899;51.174;4.456;2023-02-26T06:54:09;3.30;99.90
25918;DHT22;13899;51.174;4.456;2023-02-26T06:56:34;3.30;99.90
25918;DHT22;13899;51.174;4.456;2023-02-26T06:59:00;3.30;99.90
25918;DHT22;13899;51.174;4.456;2023-02-26T07:01:26;3.50;99.90
25918;DHT22;13899;51.174;4.456;2023-02-26T07:03:51;3.50;99.90
25918;DHT22;13899;51.174;4.456;2023-02-26T07:06:17;3.40;99.90
25918;DHT22;13899;51.174;4.456;2023-02-26T07:08:43;3.30;99.90
25918;DHT22;13899;51.174;4.456;2023-02-26T07:11:08;3.30;99.90
25918;DHT22;13899;51.174;4.456;2023-02-26T07:13:37;3.40;99.90
25918;DHT22;13899;51.174;4.456;2023-02-26T07:16:04;3.50;99.90
25918;DHT22;13899;51.174;4.456;2023-02-26T07:18:33;3.40;99.90
25918;DHT22;13899;51.174;4.456;2023-02-26T07:20:59;3.40;99.90
25918;DHT22;13899;51.174;4.456;2023-02-26T07:23:24;3.30;99.90
25918;DHT22;13899;51.174;4.456;2023-02-26T07:25:50;3.20;99.90
25918;DHT22;13899;51.174;4.456;2023-02-26T07:28:16;3.20;99.90
25918;DHT22;13899;51.174;4.456;2023-02-26T07:30:41;3.10;99.90
25918;DHT22;13899;51.174;4.456;2023-02-26T07:33:08;3.10;99.90
25918;DHT22;13899;51.174;4.456;2023-02-26T07:35:34;3.00;99.90
25918;DHT22;13899;51.174;4.456;2023-02-26T07:37:59;3.40;99.90
25918;DHT22;13899;51.174;4.456;2023-02-26T07:40:25;3.40;99.90
25918;DHT22;13899;51.174;4.456;2023-02-26T07:42:50;3.50;99.90
25918;DHT22;13899;51.174;4.456;2023-02-26T07:45:16;3.60;99.90
25918;DHT22;13899;51.174;4.456;2023-02-26T07:47:47;3.60;99.90
25918;DHT22;13899;51.174;4.456;2023-02-26T07:50:13;3.10;99.90
25918;DHT22;13899;51.174;4.456;2023-02-26T07:52:39;3.10;99.90
25918;DHT22;13899;51.174;4.456;2023-02-26T07:55:06;3.10;99.90
25918;DHT22;13899;51.174;4.456;2023-02-26T07:57:31;3.10;99.90
25918;DHT22;13899;51.174;4.456;2023-02-26T07:59:57;3.30;99.90
25918;DHT22;13899;51.174;4.456;2023-02-26T08:02:23;3.30;99.90
25918;DHT22;13899;51.174;4.456;2023-02-26T08:04:49;3.30;99.90
25918;DHT22;13899;51.174;4.456;2023-02-26T08:07:14;3.50;99.90
25918;DHT22;13899;51.174;4.456;2023-02-26T08:09:40;3.30;99.90
25918;DHT22;13899;51.174;4.456;2023-02-26T08:12:06;3.40;99.90
25918;DHT22;13899;51.174;4.456;2023-02-26T08:14:31;3.40;99.90
25918;DHT22;13899;51.174;4.456;2023-02-26T08:16:57;3.30;99.90
25918;DHT22;13899;51.174;4.456;2023-02-26T08:19:22;3.50;99.90
25918;DHT22;13899;51.174;4.456;2023-02-26T08:21:48;3.50;99.90
25918;DHT22;13899;51.174;4.456;2023-02-26T08:24:13;3.60;99.90
25918;DHT22;13899;51.174;4.456;2023-02-26T08:26:39;3.80;99.90
25918;DHT22;13899;51.174;4.456;2023-02-26T08:29:05;3.60;99.90
25918;DHT22;13899;51.174;4.456;2023-02-26T08:31:31;3.60;99.90
25918;DHT22;13899;51.174;4.456;2023-02-26T08:33:58;3.70;99.90
25918;DHT22;13899;51.174;4.456;2023-02-26T08:36:24;3.90;99.90
25918;DHT22;13899;51.174;4.456;2023-02-26T08:38:50;4.20;99.90
25918;DHT22;13899;51.174;4.456;2023-02-26T08:41:16;4.40;99.90
25918;DHT22;13899;51.174;4.456;2023-02-26T08:43:42;4.20;99.90
25918;DHT22;13899;51.174;4.456;2023-02-26T08:46:07;3.90;99.90
25918;DHT22;13899;51.174;4.456;2023-02-26T08:48:33;3.80;99.90
25918;DHT22;13899;51.174;4.456;2023-02-26T08:50:59;3.80;99.90
25918;DHT22;13899;51.174;4.456;2023-02-26T08:53:24;4.10;99.90
25918;DHT22;13899;51.174;4.456;2023-02-26T08:55:51;3.80;99.90
25918;DHT22;13899;51.174;4.456;2023-02-26T08:58:17;3.80;99.90
25918;DHT22;13899;51.174;4.456;2023-02-26T09:00:43;4.20;99.90
25918;DHT22;13899;51.174;4.456;2023-02-26T09:03:09;4.20;99.90
25918;DHT22;13899;51.174;4.456;2023-02-26T09:05:35;4.40;99.90
25918;DHT22;13899;51.174;4.456;2023-02-26T09:08:01;4.50;99.90
25918;DHT22;13899;51.174;4.456;2023-02-26T09:10:27;4.70;99.90
25918;DHT22;13899;51.174;4.456;2023-02-26T09:12:53;4.70;99.90
25918;DHT22;13899;51.174;4.456;2023-02-26T09:15:19;4.70;99.90
25918;DHT22;13899;51.174;4.456;2023-02-26T09:17:45;4.90;99.90
25918;DHT22;13899;51.174;4.456;2023-02-26T09:20:11;4.80;99.90
25918;DHT22;13899;51.174;4.456;2023-02-26T09:22:37;5.00;99.90
25918;DHT22;13899;51.174;4.456;2023-02-26T09:25:03;4.90;99.90
25918;DHT22;13899;51.174;4.456;2023-02-26T09:27:30;4.90;99.90
25918;DHT22;13899;51.174;4.456;2023-02-26T09:29:55;4.90;99.90
25918;DHT22;13899;51.174;4.456;2023-02-26T09:32:21;4.90;99.90
25918;DHT22;13899;51.174;4.456;2023-02-26T09:34:47;4.80;99.90
25918;DHT22;13899;51.174;4.456;2023-02-26T09:37:12;4.80;99.90
25918;DHT22;13899;51.174;4.456;2023-02-26T09:39:38;5.20;99.90
25918;DHT22;13899;51.174;4.456;2023-02-26T09:44:56;5.60;99.90
25918;DHT22;13899;51.174;4.456;2023-02-26T09:47:29;5.70;99.90
25918;DHT22;13899;51.174;4.456;2023-02-26T09:53:04;6.00;99.90
25918;DHT22;13899;51.174;4.456;2023-02-26T09:55:46;6.00;99.90
25918;DHT22;13899;51.174;4.456;2023-02-26T09:58:32;5.70;99.90
25918;DHT22;13899;51.174;4.456;2023-02-26T10:12:19;6.30;99.90
25918;DHT22;13899;51.174;4.456;2023-02-26T10:20:19;8.00;99.90
25918;DHT22;13899;51.174;4.456;2023-02-26T10:23:23;9.00;99.90
25918;DHT22;13899;51.174;4.456;2023-02-26T10:26:29;9.40;99.90
25918;DHT22;13899;51.174;4.456;2023-02-26T10:29:14;10.00;99.90
25918;DHT22;13899;51.174;4.456;2023-02-26T10:34:45;9.80;99.90
25918;DHT22;13899;51.174;4.456;2023-02-26T10:37:18;10.50;99.90
25918;DHT22;13899;51.174;4.456;2023-02-26T10:40:43;10.50;99.90
25918;DHT22;13899;51.174;4.456;2023-02-26T10:45:59;10.10;99.90
25918;DHT22;13899;51.174;4.456;2023-02-26T10:51:45;10.20;99.90
25918;DHT22;13899;51.174;4.456;2023-02-26T10:54:42;10.60;99.90
25918;DHT22;13899;51.174;4.456;2023-02-26T10:57:29;11.20;99.90
25918;DHT22;13899;51.174;4.456;2023-02-26T11:00:00;11.80;99.90
25918;DHT22;13899;51.174;4.456;2023-02-26T11:05:25;12.20;98.00
25918;DHT22;13899;51.174;4.456;2023-02-26T11:08:00;11.90;97.50
25918;DHT22;13899;51.174;4.456;2023-02-26T11:16:21;11.90;98.70
25918;DHT22;13899;51.174;4.456;2023-02-26T11:18:59;11.60;98.40
25918;DHT22;13899;51.174;4.456;2023-02-26T11:21:46;11.30;99.40
25918;DHT22;13899;51.174;4.456;2023-02-26T11:24:43;11.70;98.60
25918;DHT22;13899;51.174;4.456;2023-02-26T11:27:15;12.00;98.30
25918;DHT22;13899;51.174;4.456;2023-02-26T11:29:45;12.70;96.00
25918;DHT22;13899;51.174;4.456;2023-02-26T11:32:20;12.90;94.10
25918;DHT22;13899;51.174;4.456;2023-02-26T11:34:48;12.90;94.50
25918;DHT22;13899;51.174;4.456;2023-02-26T11:37:23;13.40;94.30
25918;DHT22;13899;51.174;4.456;2023-02-26T11:39:59;13.80;93.50
25918;DHT22;13899;51.174;4.456;2023-02-26T11:42:35;12.70;92.60
25918;DHT22;13899;51.174;4.456;2023-02-26T11:45:04;12.20;94.20
25918;DHT22;13899;51.174;4.456;2023-02-26T11:47:31;11.60;94.60
25918;DHT22;13899;51.174;4.456;2023-02-26T11:50:09;11.40;96.10
25918;DHT22;13899;51.174;4.456;2023-02-26T11:52:42;11.10;95.50
25918;DHT22;13899;51.174;4.456;2023-02-26T11:55:30;11.40;95.30
25918;DHT22;13899;51.174;4.456;2023-02-26T11:57:57;11.70;94.80
25918;DHT22;13899;51.174;4.456;2023-02-26T12:00:37;12.00;93.70
25918;DHT22;13899;51.174;4.456;2023-02-26T12:03:06;13.10;92.40
25918;DHT22;13899;51.174;4.456;2023-02-26T12:05:35;13.90;88.50
25918;DHT22;13899;51.174;4.456;2023-02-26T12:08:19;14.50;87.20
25918;DHT22;13899;51.174;4.456;2023-02-26T12:13:56;12.60;83.70
25918;DHT22;13899;51.174;4.456;2023-02-26T12:16:47;12.30;76.00
25918;DHT22;13899;51.174;4.456;2023-02-26T12:34:36;13.80;66.00
25918;DHT22;13899;51.174;4.456;2023-02-26T12:53:57;14.50;69.20
25918;DHT22;13899;51.174;4.456;2023-02-26T12:56:48;15.20;62.10
25918;DHT22;13899;51.174;4.456;2023-02-26T12:59:43;15.40;62.40
25918;DHT22;13899;51.174;4.456;2023-02-26T13:02:27;14.50;59.80
25918;DHT22;13899;51.174;4.456;2023-02-26T13:05:20;13.80;63.10
25918;DHT22;13899;51.174;4.456;2023-02-26T13:07:54;14.60;63.30
25918;DHT22;13899;51.174;4.456;2023-02-26T13:13:25;14.30;61.70
25918;DHT22;13899;51.174;4.456;2023-02-26T13:16:21;15.10;60.40
25918;DHT22;13899;51.174;4.456;2023-02-26T13:21:55;16.00;58.00
25918;DHT22;13899;51.174;4.456;2023-02-26T13:24:27;14.60;59.50
25918;DHT22;13899;51.174;4.456;2023-02-26T13:26:55;15.60;61.60
25918;DHT22;13899;51.174;4.456;2023-02-26T13:29:28;15.60;61.00
25918;DHT22;13899;51.174;4.456;2023-02-26T13:31:58;16.00;58.00
25918;DHT22;13899;51.174;4.456;2023-02-26T13:42:42;14.70;59.20
25918;DHT22;13899;51.174;4.456;2023-02-26T13:48:21;13.30;59.40
25918;DHT22;13899;51.174;4.456;2023-02-26T13:51:07;12.70;62.60
25918;DHT22;13899;51.174;4.456;2023-02-26T14:01:52;12.20;65.00
25918;DHT22;13899;51.174;4.456;2023-02-26T14:06:45;12.20;66.10
25918;DHT22;13899;51.174;4.456;2023-02-26T14:14:34;14.90;62.80
25918;DHT22;13899;51.174;4.456;2023-02-26T14:19:37;14.20;62.90
25918;DHT22;13899;51.174;4.456;2023-02-26T14:22:33;14.30;62.00
25918;DHT22;13899;51.174;4.456;2023-02-26T14:27:37;14.00;59.80
25918;DHT22;13899;51.174;4.456;2023-02-26T14:35:28;13.70;61.40
25918;DHT22;13899;51.174;4.456;2023-02-26T14:38:02;13.40;64.00
25918;DHT22;13899;51.174;4.456;2023-02-26T14:40:39;13.60;62.30
25918;DHT22;13899;51.174;4.456;2023-02-26T14:43:15;14.20;63.80
25918;DHT22;13899;51.174;4.456;2023-02-26T14:45:43;14.30;61.50
25918;DHT22;13899;51.174;4.456;2023-02-26T14:48:17;15.00;61.40
25918;DHT22;13899;51.174;4.456;2023-02-26T14:53:43;14.10;59.10
25918;DHT22;13899;51.174;4.456;2023-02-26T14:59:36;13.50;64.10
25918;DHT22;13899;51.174;4.456;2023-02-26T15:13:54;15.30;61.70
25918;DHT22;13899;51.174;4.456;2023-02-26T15:16:54;16.20;59.30
25918;DHT22;13899;51.174;4.456;2023-02-26T15:22:57;16.20;57.80
25918;DHT22;13899;51.174;4.456;2023-02-26T15:25:38;15.50;56.90
25918;DHT22;13899;51.174;4.456;2023-02-26T15:28:21;13.80;58.80
25918;DHT22;13899;51.174;4.456;2023-02-26T15:30:49;14.60;61.70
25918;DHT22;13899;51.174;4.456;2023-02-26T15:33:25;15.40;58.90
25918;DHT22;13899;51.174;4.456;2023-02-26T15:35:53;16.30;58.00
25918;DHT22;13899;51.174;4.456;2023-02-26T15:38:19;16.50;56.80
25918;DHT22;13899;51.174;4.456;2023-02-26T15:40:46;17.10;56.00
25918;DHT22;13899;51.174;4.456;2023-02-26T15:43:18;15.90;55.20
25918;DHT22;13899;51.174;4.456;2023-02-26T15:45:47;16.00;55.80
25918;DHT22;13899;51.174;4.456;2023-02-26T15:48:18;16.40;56.80
25918;DHT22;13899;51.174;4.456;2023-02-26T15:50:47;16.40;55.00
25918;DHT22;13899;51.174;4.456;2023-02-26T15:53:31;15.40;56.70
25918;DHT22;13899;51.174;4.456;2023-02-26T15:56:06;14.60;58.10
25918;DHT22;13899;51.174;4.456;2023-02-26T15:58:37;13.40;57.20
25918;DHT22;13899;51.174;4.456;2023-02-26T16:01:04;13.20;60.00
25918;DHT22;13899;51.174;4.456;2023-02-26T16:03:33;14.10;59.10
25918;DHT22;13899;51.174;4.456;2023-02-26T16:05:59;14.50;59.20
25918;DHT22;13899;51.174;4.456;2023-02-26T16:08:25;14.10;60.00
25918;DHT22;13899;51.174;4.456;2023-02-26T16:10:53;14.30;60.50
25918;DHT22;13899;51.174;4.456;2023-02-26T16:13:30;14.20;58.70
25918;DHT22;13899;51.174;4.456;2023-02-26T16:16:03;14.80;58.60
25918;DHT22;13899;51.174;4.456;2023-02-26T16:18:30;15.40;58.80
25918;DHT22;13899;51.174;4.456;2023-02-26T16:20:59;16.10;57.60
25918;DHT22;13899;51.174;4.456;2023-02-26T16:23:47;16.40;56.10
25918;DHT22;13899;51.174;4.456;2023-02-26T16:26:27;16.50;56.60
25918;DHT22;13899;51.174;4.456;2023-02-26T16:29:03;15.90;57.40
25918;DHT22;13899;51.174;4.456;2023-02-26T16:31:30;14.50;58.20
25918;DHT22;13899;51.174;4.456;2023-02-26T16:34:04;13.30;60.80
25918;DHT22;13899;51.174;4.456;2023-02-26T16:36:37;12.60;61.90
25918;DHT22;13899;51.174;4.456;2023-02-26T16:39:21;12.20;61.80
25918;DHT22;13899;51.174;4.456;2023-02-26T16:42:12;11.80;65.20
25918;DHT22;13899;51.174;4.456;2023-02-26T16:45:18;11.60;66.70
25918;DHT22;13899;51.174;4.456;2023-02-26T16:47:36;11.60;66.70
25918;DHT22;13899;51.174;4.456;2023-02-26T16:50:07;11.30;67.90
25918;DHT22;13899;51.174;4.456;2023-02-26T16:52:35;10.80;69.80
25918;DHT22;13899;51.174;4.456;2023-02-26T16:55:02;10.40;72.60
25918;DHT22;13899;51.174;4.456;2023-02-26T16:57:40;10.10;72.20
25918;DHT22;13899;51.174;4.456;2023-02-26T17:00:15;10.10;73.10
25918;DHT22;13899;51.174;4.456;2023-02-26T17:03:17;10.00;74.60
25918;DHT22;13899;51.174;4.456;2023-02-26T17:06:08;10.00;73.00
25918;DHT22;13899;51.174;4.456;2023-02-26T17:08:34;10.00;73.30
25918;DHT22;13899;51.174;4.456;2023-02-26T17:11:06;10.10;74.80
25918;DHT22;13899;51.174;4.456;2023-02-26T17:13:32;10.30;73.70
25918;DHT22;13899;51.174;4.456;2023-02-26T17:16:00;10.00;73.20
25918;DHT22;13899;51.174;4.456;2023-02-26T17:18:26;10.10;74.10
25918;DHT22;13899;51.174;4.456;2023-02-26T17:20:52;9.80;74.40
25918;DHT22;13899;51.174;4.456;2023-02-26T17:23:18;10.00;76.00
25918;DHT22;13899;51.174;4.456;2023-02-26T17:25:49;10.10;75.60
25918;DHT22;13899;51.174;4.456;2023-02-26T17:28:42;10.10;75.20
25918;DHT22;13899;51.174;4.456;2023-02-26T17:31:08;9.60;75.60
25918;DHT22;13899;51.174;4.456;2023-02-26T17:33:39;9.60;76.50
25918;DHT22;13899;51.174;4.456;2023-02-26T17:36:05;9.70;78.40
25918;DHT22;13899;51.174;4.456;2023-02-26T17:38:31;9.60;79.20
25918;DHT22;13899;51.174;4.456;2023-02-26T17:40:58;9.60;79.10
25918;DHT22;13899;51.174;4.456;2023-02-26T17:43:24;9.70;79.20
25918;DHT22;13899;51.174;4.456;2023-02-26T17:45:50;9.30;80.30
25918;DHT22;13899;51.174;4.456;2023-02-26T17:48:17;9.10;84.50
25918;DHT22;13899;51.174;4.456;2023-02-26T17:50:47;9.20;84.40
25918;DHT22;13899;51.174;4.456;2023-02-26T17:53:15;9.30;85.40
25918;DHT22;13899;51.174;4.456;2023-02-26T17:55:42;9.10;85.60
25918;DHT22;13899;51.174;4.456;2023-02-26T17:58:27;8.80;88.20
25918;DHT22;13899;51.174;4.456;2023-02-26T18:00:53;9.10;88.60
25918;DHT22;13899;51.174;4.456;2023-02-26T18:03:20;9.20;88.30
25918;DHT22;13899;51.174;4.456;2023-02-26T18:05:47;8.70;90.70
25918;DHT22;13899;51.174;4.456;2023-02-26T18:08:33;8.80;91.30
25918;DHT22;13899;51.174;4.456;2023-02-26T18:11:00;8.60;91.40
25918;DHT22;13899;51.174;4.456;2023-02-26T18:13:27;8.20;93.60
25918;DHT22;13899;51.174;4.456;2023-02-26T18:15:54;8.10;94.40
25918;DHT22;13899;51.174;4.456;2023-02-26T18:18:21;8.20;95.20
25918;DHT22;13899;51.174;4.456;2023-02-26T18:20:51;8.10;96.00
25918;DHT22;13899;51.174;4.456;2023-02-26T18:23:17;8.20;95.70
25918;DHT22;13899;51.174;4.456;2023-02-26T18:25:50;8.40;95.40
25918;DHT22;13899;51.174;4.456;2023-02-26T18:28:27;8.10;96.00
25918;DHT22;13899;51.174;4.456;2023-02-26T18:30:56;8.00;97.60
25918;DHT22;13899;51.174;4.456;2023-02-26T18:33:23;8.10;97.70
25918;DHT22;13899;51.174;4.456;2023-02-26T18:36:25;8.10;98.30
25918;DHT22;13899;51.174;4.456;2023-02-26T18:39:15;8.10;98.20
25918;DHT22;13899;51.174;4.456;2023-02-26T18:41:41;7.50;99.90
25918;DHT22;13899;51.174;4.456;2023-02-26T18:44:06;7.60;99.90
25918;DHT22;13899;51.174;4.456;2023-02-26T18:46:32;7.30;99.90
25918;DHT22;13899;51.174;4.456;2023-02-26T18:49:00;7.40;99.90
25918;DHT22;13899;51.174;4.456;2023-02-26T18:51:26;7.60;99.90
25918;DHT22;13899;51.174;4.456;2023-02-26T18:53:51;8.00;99.90
25918;DHT22;13899;51.174;4.456;2023-02-26T18:56:17;8.20;99.90
25918;DHT22;13899;51.174;4.456;2023-02-26T18:58:43;8.30;99.90
25918;DHT22;13899;51.174;4.456;2023-02-26T19:01:08;7.90;99.90
25918;DHT22;13899;51.174;4.456;2023-02-26T19:03:34;7.90;99.90